createdAt,value
2023-12-22T00:23:19.952Z,86.14
2023-12-22T00:52:12.919Z,90.02
2023-12-22T01:21:04.229Z,88.94
2023-12-22T01:49:56.006Z,93.32
2023-12-22T02:18:51.159Z,88.82
2023-12-22T02:47:34.104Z,83.28
2023-12-22T03:16:25.685Z,82.95
2023-12-22T03:45:17.031Z,82.45
2023-12-22T04:14:10.447Z,82.86
2023-12-22T04:43:08.071Z,80.26
2023-12-22T05:11:45.973Z,81.61
2023-12-22T05:40:36.262Z,79.84
2023-12-22T06:09:27.247Z,80.8
2023-12-22T06:38:13.292Z,84.09
2023-12-22T07:07:01.246Z,89.16
2023-12-22T07:35:37.218Z,90.38
2023-12-22T08:04:06.745Z,91.57
2023-12-22T08:32:28.552Z,90.42
2023-12-22T09:00:46.751Z,89.36
2023-12-22T09:29:17.701Z,86.97
2023-12-22T09:57:52.211Z,88.26
2023-12-22T10:26:16.776Z,98.58
2023-12-22T10:54:46.496Z,104.5
2023-12-22T11:23:16.931Z,104.5
2023-12-22T11:51:53.994Z,104.5
2023-12-22T12:20:35.142Z,104.5
2023-12-22T12:48:58.038Z,104.5
2023-12-22T13:17:41.771Z,104.5
2023-12-22T13:45:57.104Z,104.5
2023-12-22T14:14:40.357Z,104.5
2023-12-22T14:43:24.179Z,104.5
2023-12-22T15:12:05.844Z,104.5
2023-12-22T15:40:37.524Z,104.5
2023-12-22T16:09:00.699Z,104.5
2023-12-22T16:37:44.047Z,104.5
2023-12-22T17:06:05.442Z,104.5
2023-12-22T17:34:27.991Z,104.5
2023-12-22T18:03:12.425Z,104.5
2023-12-22T18:31:56.925Z,104.5
2023-12-22T19:00:27.080Z,104.5
2023-12-22T19:29:01.272Z,104.5
2023-12-22T19:57:40.096Z,104.5
2023-12-22T20:26:11.189Z,104.5
2023-12-22T20:54:50.754Z,104.5
2023-12-22T21:23:22.289Z,104.5
2023-12-22T21:51:51.163Z,101.92
2023-12-22T22:20:17.479Z,102.99
2023-12-22T22:48:38.129Z,104.03
2023-12-22T23:17:22.313Z,104.5
2023-12-22T23:45:57.553Z,104.5
